Time;durP1;ratioP1;P1;durP2;ratioP2;P2;SDS_P1;SDS_P2;PMS_P1;PMS_P2;Temp;Humidity;BMP_temperature;BMP_pressure;BME280_temperature;BME280_humidity;BME280_pressure;Samples;Min_cycle;Max_cycle;Signal;HPM_P1;HPM_P2
2022/04/11 00:02:17;;;;;;;3.75;1.52;;;5.10;99.90;;;;;;5055632;28;20053;-78
2022/04/11 00:04:43;;;;;;;3.63;1.70;;;5.20;99.90;;;;;;5055317;28;20041;-78
2022/04/11 00:07:09;;;;;;;4.72;1.92;;;5.10;99.90;;;;;;5055583;28;20495;-78
2022/04/11 00:09:35;;;;;;;5.43;1.75;;;5.20;99.90;;;;;;5054513;28;20123;-78
2022/04/11 00:12:01;;;;;;;4.60;2.00;;;5.20;99.90;;;;;;5038718;28;20052;-78
2022/04/11 00:14:27;;;;;;;6.13;2.35;;;5.20;99.90;;;;;;5054632;28;20045;-78
2022/04/11 00:16:52;;;;;;;4.22;1.88;;;5.30;99.90;;;;;;5038523;28;20048;-78
2022/04/11 00:19:18;;;;;;;4.07;1.90;;;5.30;99.90;;;;;;5054810;28;20045;-78
2022/04/11 00:21:44;;;;;;;4.32;1.70;;;5.40;99.90;;;;;;5055167;28;20135;-78
2022/04/11 00:24:10;;;;;;;3.97;1.95;;;5.30;99.90;;;;;;5054694;28;20452;-78
2022/04/11 00:26:36;;;;;;;5.82;2.10;;;5.30;99.90;;;;;;5055306;28;20365;-78
2022/04/11 00:29:02;;;;;;;6.07;2.15;;;5.40;99.90;;;;;;5054782;28;20060;-78
2022/04/11 00:31:29;;;;;;;5.53;2.20;;;5.30;99.90;;;;;;5054934;28;20053;-78
2022/04/11 00:33:55;;;;;;;3.75;1.80;;;5.30;99.90;;;;;;5054568;28;20399;-78
2022/04/11 00:36:21;;;;;;;5.72;2.40;;;5.30;99.90;;;;;;5038226;28;20049;-78
2022/04/11 00:38:47;;;;;;;4.05;1.88;;;5.30;99.90;;;;;;5037900;28;20045;-78
2022/04/11 00:41:12;;;;;;;4.13;2.22;;;5.20;99.90;;;;;;5037737;28;20384;-78
2022/04/11 00:43:39;;;;;;;3.83;2.03;;;5.10;99.90;;;;;;5038214;28;20118;-78
2022/04/11 00:46:07;;;;;;;4.15;1.80;;;5.10;99.90;;;;;;5054606;28;20053;-78
2022/04/11 00:48:33;;;;;;;5.40;2.17;;;5.10;99.90;;;;;;5055158;28;20045;-78
2022/04/11 00:51:08;;;;;;;4.82;2.42;;;5.00;99.90;;;;;;5054281;28;20529;-78
2022/04/11 00:53:37;;;;;;;3.88;2.10;;;5.10;99.90;;;;;;5053871;28;20105;-78
2022/04/11 00:56:03;;;;;;;8.70;1.92;;;5.10;99.90;;;;;;5054354;28;20507;-78
2022/04/11 00:58:30;;;;;;;9.50;1.80;;;5.10;99.90;;;;;;5054361;28;20120;-78
2022/04/11 01:00:56;;;;;;;5.15;2.10;;;4.90;99.90;;;;;;5054400;28;20044;-78
2022/04/11 01:03:22;;;;;;;5.22;1.92;;;4.90;99.90;;;;;;5054209;28;20160;-78
2022/04/11 01:05:48;;;;;;;5.50;1.88;;;4.90;99.90;;;;;;5054197;28;20124;-78
2022/04/11 01:08:14;;;;;;;6.82;1.80;;;4.80;99.90;;;;;;5037619;28;20161;-78
2022/04/11 01:10:40;;;;;;;4.50;2.10;;;4.70;99.90;;;;;;5037004;28;20056;-77
2022/04/11 01:13:05;;;;;;;5.00;2.10;;;4.80;99.90;;;;;;5020976;28;20052;-78
2022/04/11 01:15:31;;;;;;;4.93;1.90;;;4.70;99.90;;;;;;5054143;28;20384;-78
2022/04/11 01:17:57;;;;;;;4.28;2.10;;;4.70;99.90;;;;;;5053829;28;20052;-78
2022/04/11 01:20:23;;;;;;;7.10;2.35;;;4.70;99.90;;;;;;5054094;28;20114;-78
2022/04/11 01:22:48;;;;;;;4.05;2.50;;;4.70;99.90;;;;;;5053698;28;20068;-78
2022/04/11 01:25:15;;;;;;;4.28;2.38;;;4.70;99.90;;;;;;5037159;28;20098;-78
2022/04/11 01:27:42;;;;;;;3.95;1.70;;;4.70;99.90;;;;;;5037285;28;20048;-78
2022/04/11 01:30:11;;;;;;;6.57;2.17;;;4.70;99.90;;;;;;5053723;28;20114;-78
2022/04/11 01:32:37;;;;;;;3.13;1.90;;;4.60;99.90;;;;;;5053541;28;20483;-78
2022/04/11 01:35:04;;;;;;;4.63;2.13;;;4.60;99.90;;;;;;5053575;28;20387;-78
2022/04/11 01:37:30;;;;;;;3.15;1.80;;;4.70;99.90;;;;;;5053514;28;20103;-78
2022/04/11 01:39:56;;;;;;;4.47;1.80;;;4.70;99.90;;;;;;5053046;28;20044;-78
2022/04/11 01:42:22;;;;;;;7.13;2.50;;;4.70;99.90;;;;;;5053709;28;20395;-78
2022/04/11 01:44:48;;;;;;;5.30;2.22;;;4.70;99.90;;;;;;5053288;28;20400;-78
2022/04/11 01:47:13;;;;;;;5.32;2.35;;;4.70;99.90;;;;;;5053467;28;20044;-78
2022/04/11 01:49:39;;;;;;;3.78;1.92;;;4.70;99.90;;;;;;5036415;28;20140;-78
2022/04/11 01:52:05;;;;;;;4.43;2.30;;;4.60;99.90;;;;;;5036789;28;20056;-78
2022/04/11 01:54:31;;;;;;;5.32;2.40;;;4.60;99.90;;;;;;5053101;28;20102;-78
2022/04/11 01:56:57;;;;;;;4.93;2.10;;;4.60;99.90;;;;;;5052982;28;20049;-78
2022/04/11 01:59:22;;;;;;;5.53;2.38;;;4.60;99.90;;;;;;5053240;28;20044;-77
2022/04/11 02:01:48;;;;;;;5.70;2.50;;;4.70;99.90;;;;;;5052943;28;20049;-78
2022/04/11 02:04:14;;;;;;;7.07;2.65;;;4.70;99.90;;;;;;5052164;28;20060;-78
2022/04/11 02:06:40;;;;;;;6.72;2.08;;;4.60;99.90;;;;;;5036326;28;20137;-78
2022/04/11 02:09:06;;;;;;;5.82;2.58;;;4.60;99.90;;;;;;5053025;28;20048;-77
2022/04/11 02:11:32;;;;;;;7.10;2.45;;;4.70;99.90;;;;;;5052337;28;20090;-78
2022/04/11 02:13:58;;;;;;;4.00;2.15;;;4.70;99.90;;;;;;5052610;28;20044;-78
2022/04/11 02:16:24;;;;;;;4.32;1.83;;;4.60;99.90;;;;;;5036336;28;20044;-78
2022/04/11 02:18:50;;;;;;;4.93;2.10;;;4.50;99.90;;;;;;5036207;28;20055;-78
2022/04/11 02:21:16;;;;;;;3.97;1.88;;;4.50;99.90;;;;;;5052956;28;20106;-78
2022/04/11 02:23:41;;;;;;;6.22;2.15;;;4.50;99.90;;;;;;5035907;28;20056;-78
2022/04/11 02:26:08;;;;;;;6.53;2.03;;;4.50;99.90;;;;;;5052510;28;20056;-79
2022/04/11 02:28:34;;;;;;;5.22;2.28;;;4.40;99.90;;;;;;5052749;28;20055;-78
2022/04/11 02:30:59;;;;;;;7.22;2.28;;;4.40;99.90;;;;;;5052648;28;20124;-78
2022/04/11 02:33:25;;;;;;;3.35;1.80;;;4.30;99.90;;;;;;5052422;28;20041;-78
2022/04/11 02:35:51;;;;;;;5.68;2.28;;;4.40;99.90;;;;;;5052541;28;20199;-78
2022/04/11 02:38:17;;;;;;;2.80;1.77;;;4.30;99.90;;;;;;5053116;28;20076;-78
2022/04/11 02:40:42;;;;;;;4.13;1.95;;;4.30;99.90;;;;;;5051912;28;20522;-78
2022/04/11 02:43:08;;;;;;;4.45;1.92;;;4.30;99.90;;;;;;5035932;28;20144;-78
2022/04/11 02:45:34;;;;;;;4.40;2.05;;;4.20;99.90;;;;;;5052257;28;20457;-78
2022/04/11 02:48:00;;;;;;;4.97;1.85;;;4.10;99.90;;;;;;5035843;28;20052;-78
2022/04/11 02:50:25;;;;;;;5.53;1.98;;;4.20;99.90;;;;;;5052627;28;20543;-78
2022/04/11 02:52:51;;;;;;;5.90;2.03;;;4.10;99.90;;;;;;5052236;28;20411;-78
2022/04/11 02:55:16;;;;;;;5.03;2.13;;;4.10;99.90;;;;;;5052473;28;20403;-77
2022/04/11 02:57:42;;;;;;;6.50;2.38;;;4.20;99.90;;;;;;5052213;28;20045;-77
2022/04/11 03:00:13;;;;;;;5.40;2.10;;;4.20;99.90;;;;;;5052152;28;20110;-77
2022/04/11 03:02:39;;;;;;;4.88;1.90;;;4.20;99.90;;;;;;5035473;28;20057;-78
2022/04/11 03:05:05;;;;;;;2.58;1.80;;;4.20;99.90;;;;;;5035803;28;20380;-78
2022/04/11 03:07:31;;;;;;;5.03;2.08;;;4.10;99.90;;;;;;5035737;28;20041;-77
2022/04/11 03:09:57;;;;;;;4.35;2.30;;;4.10;99.90;;;;;;5035364;28;20128;-77
2022/04/11 03:12:24;;;;;;;5.43;2.42;;;4.00;99.90;;;;;;5052277;28;20037;-77
2022/04/11 03:14:50;;;;;;;4.65;1.83;;;4.00;99.90;;;;;;5052235;28;20107;-78
2022/04/11 03:17:16;;;;;;;5.30;2.28;;;4.00;99.90;;;;;;5039063;28;20503;-78
2022/04/11 03:19:45;;;;;;;3.05;1.80;;;4.00;99.90;;;;;;5039733;28;20087;-78
2022/04/11 03:22:11;;;;;;;4.38;1.83;;;4.00;99.90;;;;;;5056356;28;20430;-77
2022/04/11 03:24:37;;;;;;;5.03;1.90;;;4.00;99.90;;;;;;5056064;28;20076;-78
2022/04/11 03:27:03;;;;;;;4.22;2.10;;;3.90;99.90;;;;;;5039901;28;20044;-77
2022/04/11 03:29:29;;;;;;;4.03;2.30;;;4.00;99.90;;;;;;5055984;28;20049;-79
2022/04/11 03:31:55;;;;;;;5.53;1.90;;;4.00;99.90;;;;;;5039709;28;20445;-77
2022/04/11 03:34:21;;;;;;;5.25;2.08;;;4.10;99.90;;;;;;5038980;28;20626;-78
2022/04/11 03:36:47;;;;;;;5.40;1.98;;;4.20;99.90;;;;;;5055873;28;20094;-78
2022/04/11 03:39:13;;;;;;;3.13;1.83;;;4.30;99.90;;;;;;5055987;28;20395;-78
2022/04/11 03:41:38;;;;;;;7.40;2.33;;;4.40;99.90;;;;;;5055186;28;20045;-76
2022/04/11 03:44:04;;;;;;;4.65;2.30;;;4.40;99.90;;;;;;5038922;28;20063;-77
2022/04/11 03:46:30;;;;;;;5.28;2.30;;;4.50;99.90;;;;;;5055616;28;20056;-78
2022/04/11 03:48:56;;;;;;;6.18;2.20;;;4.50;99.90;;;;;;5022841;28;20491;-77
2022/04/11 03:51:22;;;;;;;8.13;2.00;;;4.50;99.90;;;;;;5055568;28;20064;-77
2022/04/11 03:53:48;;;;;;;5.47;2.45;;;4.50;99.90;;;;;;5038842;28;20041;-77
2022/04/11 03:56:17;;;;;;;4.78;2.30;;;4.50;99.90;;;;;;5055419;28;20044;-77
2022/04/11 03:58:46;;;;;;;6.18;2.83;;;4.60;99.90;;;;;;5038887;28;20052;-78
2022/04/11 04:01:12;;;;;;;3.72;2.08;;;4.60;99.90;;;;;;5038889;28;20064;-77
2022/04/11 04:03:39;;;;;;;4.63;2.28;;;4.60;99.90;;;;;;5039009;28;20132;-77
2022/04/11 04:06:05;;;;;;;6.43;1.98;;;4.60;99.90;;;;;;5055465;28;20055;-77
2022/04/11 04:08:30;;;;;;;5.93;2.40;;;4.70;99.90;;;;;;5055470;28;20052;-77
2022/04/11 04:10:56;;;;;;;5.55;2.38;;;4.60;99.90;;;;;;5054773;28;20041;-77
2022/04/11 04:13:22;;;;;;;4.57;1.90;;;4.60;99.90;;;;;;5055025;28;20045;-78
2022/04/11 04:15:47;;;;;;;4.68;2.17;;;4.60;99.90;;;;;;5054986;28;20498;-80
2022/04/11 04:18:13;;;;;;;4.07;2.30;;;4.50;99.90;;;;;;5022088;28;20049;-77
2022/04/11 04:20:42;;;;;;;9.10;2.63;;;4.60;99.90;;;;;;5055056;28;20048;-77
2022/04/11 04:23:08;;;;;;;3.58;2.13;;;4.50;99.90;;;;;;5021965;28;20136;-77
2022/04/11 04:25:34;;;;;;;4.55;2.40;;;4.60;99.90;;;;;;5054937;28;20044;-78
2022/04/11 04:28:00;;;;;;;4.60;2.33;;;4.50;99.90;;;;;;5054336;28;20045;-78
2022/04/11 04:30:28;;;;;;;5.57;2.60;;;4.60;99.90;;;;;;5055021;28;20072;-77
2022/04/11 04:32:54;;;;;;;4.85;2.00;;;4.60;99.90;;;;;;5021961;28;20052;-78
2022/04/11 04:35:20;;;;;;;6.65;2.55;;;4.60;99.90;;;;;;5038145;28;20051;-77
2022/04/11 04:37:46;;;;;;;6.85;2.22;;;4.80;99.90;;;;;;5054799;28;20041;-77
2022/04/11 04:40:11;;;;;;;4.70;2.42;;;4.80;99.90;;;;;;5037574;28;20053;-78
2022/04/11 04:42:37;;;;;;;5.05;2.65;;;4.90;99.90;;;;;;5021310;28;20057;-78
2022/04/11 04:45:04;;;;;;;7.05;3.03;;;5.00;99.90;;;;;;5054297;28;20057;-77
2022/04/11 04:47:30;;;;;;;5.05;2.53;;;5.00;99.90;;;;;;5054223;28;20045;-78
2022/04/11 04:49:56;;;;;;;9.82;2.65;;;5.00;99.90;;;;;;5054685;28;20377;-77
2022/04/11 04:52:21;;;;;;;3.97;2.50;;;5.10;99.90;;;;;;5054316;28;20106;-77
2022/04/11 04:54:47;;;;;;;4.35;2.45;;;5.10;99.90;;;;;;5038061;28;20383;-79
2022/04/11 04:57:13;;;;;;;6.32;2.90;;;5.10;99.90;;;;;;5054046;28;20048;-77
2022/04/11 04:59:38;;;;;;;7.35;3.13;;;5.10;99.90;;;;;;5037888;28;20044;-77
2022/04/11 05:02:04;;;;;;;5.72;2.67;;;5.10;99.90;;;;;;5037850;28;20373;-77
2022/04/11 05:04:30;;;;;;;5.85;2.70;;;5.10;99.90;;;;;;5054362;28;20384;-77
2022/04/11 05:06:56;;;;;;;5.82;2.42;;;5.10;99.90;;;;;;5053971;28;20049;-78
2022/04/11 05:09:21;;;;;;;4.70;2.30;;;5.10;99.90;;;;;;5037737;28;20134;-77
2022/04/11 05:11:47;;;;;;;6.15;2.55;;;5.10;99.90;;;;;;5037098;28;20067;-78
2022/04/11 05:14:12;;;;;;;7.40;3.13;;;5.10;99.90;;;;;;5053652;28;20071;-78
2022/04/11 05:16:38;;;;;;;6.57;2.80;;;5.20;99.90;;;;;;5054763;28;20052;-78
2022/04/11 05:19:04;;;;;;;7.80;2.45;;;5.20;99.90;;;;;;5053801;28;20551;-77
2022/04/11 05:21:30;;;;;;;7.20;2.70;;;5.30;99.90;;;;;;5054003;28;20115;-77
2022/04/11 05:23:56;;;;;;;5.93;3.10;;;5.30;99.90;;;;;;5037199;28;20073;-77
2022/04/11 05:26:22;;;;;;;5.85;2.92;;;5.40;99.90;;;;;;5053470;28;20515;-77
2022/04/11 05:28:49;;;;;;;7.60;2.90;;;5.50;99.90;;;;;;5053820;28;20056;-77
2022/04/11 05:31:15;;;;;;;5.35;2.58;;;5.60;99.90;;;;;;5053678;28;20048;-77
2022/04/11 05:33:41;;;;;;;5.95;2.72;;;5.60;99.90;;;;;;5037247;28;20045;-77
2022/04/11 05:36:06;;;;;;;10.02;3.10;;;5.60;99.90;;;;;;5053590;28;20107;-77
2022/04/11 05:38:32;;;;;;;8.45;3.20;;;5.70;99.90;;;;;;5053429;28;20052;-78
2022/04/11 05:40:58;;;;;;;7.57;3.45;;;5.70;99.90;;;;;;5052254;28;20084;-78
2022/04/11 05:43:24;;;;;;;5.63;2.58;;;5.80;99.90;;;;;;5036641;28;20484;-77
2022/04/11 05:45:50;;;;;;;7.85;2.90;;;5.90;99.90;;;;;;5036634;28;20048;-77
2022/04/11 05:48:15;;;;;;;3.83;2.20;;;5.90;99.90;;;;;;5037005;28;20475;-77
2022/04/11 05:50:41;;;;;;;5.88;2.40;;;5.90;99.90;;;;;;5036863;28;20143;-78
2022/04/11 05:53:06;;;;;;;4.72;2.20;;;6.00;99.90;;;;;;5036486;28;20095;-77
2022/04/11 05:55:32;;;;;;;7.68;2.42;;;6.10;99.90;;;;;;5053335;28;20088;-77
2022/04/11 05:57:58;;;;;;;6.93;1.92;;;6.20;99.90;;;;;;5053047;28;20132;-78
2022/04/11 06:00:24;;;;;;;6.68;2.17;;;6.30;99.90;;;;;;5053786;28;20044;-77
2022/04/11 06:02:50;;;;;;;8.70;2.20;;;6.40;99.90;;;;;;5052745;28;20380;-77
2022/04/11 06:05:16;;;;;;;3.60;1.80;;;6.50;99.90;;;;;;5053096;28;20047;-78
2022/04/11 06:07:41;;;;;;;4.03;2.10;;;6.50;99.90;;;;;;5052858;28;20052;-77
2022/04/11 06:10:08;;;;;;;6.30;2.20;;;6.60;99.90;;;;;;5036158;28;20144;-78
2022/04/11 06:12:35;;;;;;;5.57;1.95;;;6.60;99.90;;;;;;5053078;28;20045;-78
2022/04/11 06:15:00;;;;;;;7.93;2.30;;;6.70;99.90;;;;;;5052929;28;20046;-78
2022/04/11 06:17:26;;;;;;;4.55;1.73;;;6.60;99.90;;;;;;5053197;28;20397;-78
2022/04/11 06:19:53;;;;;;;6.00;1.80;;;6.70;99.90;;;;;;5053002;28;20084;-77
2022/04/11 06:22:20;;;;;;;5.80;2.28;;;6.70;99.90;;;;;;5052680;28;20076;-78
2022/04/11 06:24:46;;;;;;;4.95;2.17;;;6.70;99.90;;;;;;5052502;28;20384;-78
2022/04/11 06:27:12;;;;;;;6.25;1.75;;;6.90;99.90;;;;;;5052476;28;20053;-78
2022/04/11 06:29:38;;;;;;;3.92;1.35;;;6.90;99.90;;;;;;5052973;28;20442;-78
2022/04/11 06:32:05;;;;;;;5.70;1.90;;;6.90;99.90;;;;;;5052620;28;20407;-78
2022/04/11 06:34:31;;;;;;;6.63;1.63;;;6.90;99.90;;;;;;5052538;28;20049;-78
2022/04/11 06:36:57;;;;;;;6.13;1.90;;;7.00;99.90;;;;;;5052464;28;20458;-78
2022/04/11 06:39:23;;;;;;;6.15;1.60;;;7.00;99.90;;;;;;5052589;28;20053;-78
2022/04/11 06:41:48;;;;;;;4.95;1.92;;;7.10;99.90;;;;;;5035373;28;20084;-78
2022/04/11 06:44:14;;;;;;;6.35;1.80;;;7.20;99.90;;;;;;5035775;28;20102;-78
2022/04/11 06:46:40;;;;;;;7.50;1.85;;;7.30;99.90;;;;;;5052207;28;20112;-78
2022/04/11 06:49:05;;;;;;;3.80;1.80;;;7.30;99.90;;;;;;5052508;28;20082;-78
2022/04/11 06:51:31;;;;;;;6.25;1.63;;;7.40;99.90;;;;;;5052083;28;20148;-77
2022/04/11 06:53:57;;;;;;;8.10;1.95;;;7.40;99.90;;;;;;5051923;28;20052;-78
2022/04/11 06:56:22;;;;;;;6.70;1.88;;;7.60;99.90;;;;;;5052256;28;20190;-78
2022/04/11 06:58:48;;;;;;;4.35;1.50;;;7.60;99.90;;;;;;5035720;28;20049;-78
2022/04/11 07:01:14;;;;;;;4.22;1.73;;;7.70;99.90;;;;;;5052457;28;20083;-78
2022/04/11 07:03:39;;;;;;;7.28;1.85;;;7.80;99.90;;;;;;5052220;28;20053;-77
2022/04/11 07:06:05;;;;;;;5.32;1.85;;;7.80;99.90;;;;;;5052202;28;20047;-78
2022/04/11 07:08:31;;;;;;;5.22;1.50;;;7.80;99.90;;;;;;5035443;28;20040;-78
2022/04/11 07:11:00;;;;;;;4.68;1.60;;;7.90;99.90;;;;;;5018891;28;20049;-78
2022/04/11 07:13:26;;;;;;;5.25;1.55;;;8.00;99.90;;;;;;5052059;28;20048;-79
2022/04/11 07:15:52;;;;;;;7.57;1.70;;;8.00;99.90;;;;;;5053253;28;20053;-79
2022/04/11 07:18:19;;;;;;;5.75;1.77;;;8.10;99.90;;;;;;5058572;28;20126;-78
2022/04/11 07:20:45;;;;;;;2.88;1.55;;;8.00;99.90;;;;;;5035377;28;20454;-79
2022/04/11 07:23:11;;;;;;;9.07;1.60;;;8.10;99.90;;;;;;5052201;28;20052;-79
2022/04/11 07:25:38;;;;;;;6.32;1.75;;;8.10;99.90;;;;;;5035430;28;20053;-79
2022/04/11 07:28:05;;;;;;;5.18;1.65;;;8.20;99.90;;;;;;5051807;28;20056;-78
2022/04/11 07:30:31;;;;;;;5.60;1.60;;;8.30;99.90;;;;;;5052016;28;20114;-78
2022/04/11 07:32:57;;;;;;;5.85;1.77;;;8.40;99.90;;;;;;5035672;28;20048;-79
2022/04/11 07:35:23;;;;;;;6.95;1.80;;;8.50;99.90;;;;;;5051869;28;20041;-78
2022/04/11 07:37:49;;;;;;;6.65;1.85;;;8.50;99.90;;;;;;5051811;28;20052;-79
2022/04/11 07:40:15;;;;;;;8.82;2.08;;;8.60;99.90;;;;;;5051317;28;20049;-79
2022/04/11 07:42:41;;;;;;;7.53;2.40;;;8.70;99.90;;;;;;5051722;28;20053;-79
2022/04/11 07:45:07;;;;;;;10.82;2.40;;;8.60;99.90;;;;;;5051880;28;20084;-79
2022/04/11 07:47:33;;;;;;;7.18;1.83;;;8.70;99.90;;;;;;5051956;28;20052;-79
2022/04/11 07:49:58;;;;;;;7.97;1.90;;;8.80;99.90;;;;;;5052019;28;20060;-78
2022/04/11 07:52:25;;;;;;;8.93;2.20;;;8.80;99.90;;;;;;5035345;28;20128;-78
2022/04/11 07:54:51;;;;;;;9.18;2.20;;;8.70;99.90;;;;;;5051340;28;20566;-79
2022/04/11 07:57:17;;;;;;;8.68;2.30;;;8.60;99.90;;;;;;5051928;28;20065;-78
2022/04/11 07:59:43;;;;;;;4.75;1.88;;;8.60;99.90;;;;;;5035127;28;20045;-79
2022/04/11 08:02:08;;;;;;;9.07;2.05;;;8.80;99.90;;;;;;5052112;28;20044;-78
2022/04/11 08:04:34;;;;;;;7.28;2.05;;;9.00;99.90;;;;;;5038830;28;20132;-76
2022/04/11 08:07:02;;;;;;;6.40;1.80;;;9.10;99.90;;;;;;5055197;28;20041;-78
2022/04/11 08:09:28;;;;;;;5.63;2.22;;;9.10;99.90;;;;;;5056806;28;20045;-78
2022/04/11 08:11:54;;;;;;;5.15;2.08;;;9.20;99.90;;;;;;5054514;28;20072;-80
2022/04/11 08:14:20;;;;;;;4.93;1.83;;;9.20;99.90;;;;;;5055002;28;20103;-81
2022/04/11 08:16:46;;;;;;;7.05;2.10;;;9.10;99.90;;;;;;5055305;28;20080;-79
2022/04/11 08:19:12;;;;;;;6.63;2.03;;;9.20;99.90;;;;;;5054977;28;20084;-80
2022/04/11 08:21:40;;;;;;;5.28;2.40;;;9.30;99.90;;;;;;5038163;28;20052;-80
2022/04/11 08:24:05;;;;;;;5.57;2.25;;;9.40;99.90;;;;;;5055047;28;20049;-79
2022/04/11 08:26:31;;;;;;;5.13;2.00;;;9.30;99.90;;;;;;5055183;28;20495;-76
2022/04/11 08:28:57;;;;;;;7.35;2.40;;;9.40;99.90;;;;;;5056343;28;20052;-81
2022/04/11 08:31:23;;;;;;;5.18;2.00;;;9.50;99.90;;;;;;5063565;28;20057;-82
2022/04/11 08:33:48;;;;;;;6.97;2.72;;;9.60;99.90;;;;;;5054540;28;20503;-81
2022/04/11 08:36:14;;;;;;;4.55;2.30;;;9.70;99.90;;;;;;5038012;28;20075;-81
2022/04/11 08:38:40;;;;;;;32.50;3.17;;;9.70;99.90;;;;;;5055301;28;20053;-81
2022/04/11 08:41:12;;;;;;;9.00;2.55;;;9.80;99.90;;;;;;5054309;28;20057;-82
2022/04/11 08:43:38;;;;;;;10.65;2.22;;;9.90;99.90;;;;;;5054523;28;20053;-81
2022/04/11 08:46:06;;;;;;;5.32;2.13;;;9.90;99.90;;;;;;5055546;28;20053;-82
2022/04/11 08:48:32;;;;;;;7.63;2.55;;;10.20;99.90;;;;;;5055746;28;20092;-82
2022/04/11 08:50:58;;;;;;;6.20;2.13;;;10.10;99.90;;;;;;5054129;28;20080;-82
2022/04/11 08:53:24;;;;;;;7.95;2.20;;;10.10;99.90;;;;;;5055452;28;20045;-82
2022/04/11 08:55:51;;;;;;;5.25;2.10;;;10.40;99.90;;;;;;5056092;28;20052;-79
2022/04/11 08:58:17;;;;;;;8.13;2.25;;;10.10;99.90;;;;;;5054247;28;20053;-79
2022/04/11 09:00:43;;;;;;;6.40;2.55;;;10.20;99.90;;;;;;5054373;28;20049;-78
2022/04/11 09:03:08;;;;;;;7.53;2.33;;;10.40;99.90;;;;;;5054407;28;20059;-79
2022/04/11 09:05:34;;;;;;;6.30;2.58;;;10.60;99.90;;;;;;5053697;28;20052;-79
2022/04/11 09:08:01;;;;;;;10.00;2.42;;;10.80;99.90;;;;;;5054446;28;20128;-80
2022/04/11 09:10:32;;;;;;;5.38;2.10;;;11.00;99.90;;;;;;5037246;28;20150;-80
2022/04/11 09:13:06;;;;;;;4.60;2.13;;;10.90;99.90;;;;;;5053549;28;20060;-79
2022/04/11 09:15:41;;;;;;;7.60;2.28;;;11.10;99.90;;;;;;5055210;28;20048;-78
2022/04/11 09:18:06;;;;;;;4.88;1.80;;;11.30;99.90;;;;;;5035297;28;20057;-79
2022/04/11 09:20:32;;;;;;;6.00;2.10;;;11.40;99.90;;;;;;5052584;28;20056;-79
2022/04/11 09:22:58;;;;;;;4.82;1.85;;;11.30;99.90;;;;;;5037482;28;20041;-79
2022/04/11 09:25:31;;;;;;;7.22;1.80;;;11.60;99.90;;;;;;5053653;28;20053;-78
2022/04/11 09:28:09;;;;;;;10.55;1.92;;;11.50;99.90;;;;;;5053885;28;20044;-83
2022/04/11 09:30:36;;;;;;;6.68;2.30;;;11.40;99.90;;;;;;5054570;28;20064;-83
2022/04/11 09:33:09;;;;;;;6.35;2.33;;;11.20;99.90;;;;;;5037106;28;20052;-83
2022/04/11 09:35:39;;;;;;;5.65;2.03;;;11.10;99.90;;;;;;5036885;28;20048;-82
2022/04/11 09:38:07;;;;;;;5.50;2.40;;;11.00;99.90;;;;;;5053396;28;20056;-79
2022/04/11 09:40:50;;;;;;;8.30;2.25;;;11.30;99.90;;;;;;5053210;28;20127;-79
2022/04/11 09:43:33;;;;;;;8.23;2.42;;;11.70;99.90;;;;;;5053141;28;20117;-78
2022/04/11 09:46:00;;;;;;;9.23;2.10;;;12.10;99.90;;;;;;5053566;28;20174;-80
2022/04/11 09:48:30;;;;;;;4.05;1.80;;;12.30;99.90;;;;;;5053598;28;20057;-78
2022/04/11 09:50:59;;;;;;;4.63;1.92;;;12.40;99.90;;;;;;5054750;28;20377;-77
2022/04/11 09:53:33;;;;;;;6.72;1.70;;;12.50;99.90;;;;;;5053231;28;20061;-78
2022/04/11 09:56:03;;;;;;;4.45;1.50;;;12.60;99.90;;;;;;5053155;28;20491;-78
2022/04/11 09:58:29;;;;;;;5.47;1.30;;;12.70;99.90;;;;;;5053470;28;20052;-76
2022/04/11 10:00:57;;;;;;;6.07;1.77;;;12.70;99.90;;;;;;5054129;28;20195;-83
2022/04/11 10:03:23;;;;;;;5.68;1.70;;;12.70;99.90;;;;;;5053450;28;20080;-81
2022/04/11 10:05:49;;;;;;;7.18;1.58;;;12.50;99.90;;;;;;5052898;28;20051;-82
2022/04/11 10:08:15;;;;;;;3.90;1.13;;;12.20;99.90;;;;;;5052990;28;20127;-84
2022/04/11 10:10:42;;;;;;;5.30;1.10;;;11.90;99.30;;;;;;5052914;28;20049;-84
2022/04/11 10:13:11;;;;;;;4.90;1.40;;;12.00;99.90;;;;;;5052846;28;20044;-81
2022/04/11 10:15:38;;;;;;;6.88;1.60;;;12.00;99.90;;;;;;5052936;28;20041;-81
2022/04/11 10:18:05;;;;;;;6.47;1.30;;;12.10;99.10;;;;;;5052897;28;20048;-81
2022/04/11 10:20:39;;;;;;;4.05;1.00;;;11.90;99.50;;;;;;5052862;28;20131;-82
2022/04/11 10:23:18;;;;;;;7.65;1.40;;;11.90;99.50;;;;;;5053129;28;20059;-77
2022/04/11 10:25:48;;;;;;;3.50;1.00;;;12.30;99.90;;;;;;5053288;28;20087;-75
2022/04/11 10:28:15;;;;;;;3.83;1.13;;;12.90;99.90;;;;;;5053848;28;20087;-75
2022/04/11 10:30:42;;;;;;;5.32;1.30;;;13.40;98.80;;;;;;5053531;28;20056;-75
2022/04/11 10:33:07;;;;;;;4.05;1.20;;;13.70;98.30;;;;;;5052487;28;20084;-75
2022/04/11 10:35:43;;;;;;;4.68;1.50;;;13.90;98.30;;;;;;5052683;28;20107;-75
2022/04/11 10:38:12;;;;;;;;;;;14.20;99.00;;;;;;5053003;28;20056;-75
2022/04/11 10:40:47;;;;;;;4.00;1.92;;;14.40;98.60;;;;;;5052354;28;19921;-75
2022/04/11 10:43:14;;;;;;;6.93;1.50;;;14.60;98.00;;;;;;5053311;28;20057;-74
2022/04/11 10:45:57;;;;;;;3.60;1.20;;;14.50;98.40;;;;;;5052030;28;20408;-74
2022/04/11 10:48:56;;;;;;;5.55;1.55;;;14.40;98.00;;;;;;5053438;28;20135;-75
2022/04/11 10:51:22;;;;;;;4.38;1.60;;;14.40;98.00;;;;;;5052334;28;20063;-75
2022/04/11 10:54:19;;;;;;;5.93;1.70;;;14.60;98.60;;;;;;5052043;28;20128;-76
2022/04/11 10:56:53;;;;;;;5.88;1.60;;;14.70;97.90;;;;;;5052649;28;20049;-73
2022/04/11 11:03:06;;;;;;;5.63;1.60;;;15.10;97.70;;;;;;5263507;22;20138;-77
2022/04/11 11:05:39;;;;;;;7.13;1.88;;;15.70;98.50;;;;;;5029978;28;20103;-77
2022/04/11 11:08:07;;;;;;;4.35;1.92;;;14.80;98.50;;;;;;5032934;28;20049;-77
2022/04/11 11:10:43;;;;;;;8.57;2.20;;;14.20;98.60;;;;;;5032744;28;20053;-77
2022/04/11 11:13:27;;;;;;;5.30;2.20;;;14.20;99.10;;;;;;5032318;28;20381;-77
2022/04/11 11:16:14;;;;;;;5.43;2.10;;;14.30;99.10;;;;;;5032917;28;20515;-86
2022/04/11 11:18:49;;;;;;;5.28;1.90;;;14.50;98.90;;;;;;5031299;28;20459;-85
2022/04/11 11:21:47;;;;;;;3.53;1.77;;;14.50;99.30;;;;;;5033203;28;20087;-91
2022/04/11 11:24:15;;;;;;;6.85;2.17;;;14.40;98.70;;;;;;5034280;28;20080;-93
2022/04/11 11:26:45;;;;;;;7.68;2.00;;;14.60;99.20;;;;;;5034344;28;20042;-92
2022/04/11 11:29:16;;;;;;;3.78;2.10;;;14.80;99.00;;;;;;5034217;28;20055;-94
2022/04/11 11:31:43;;;;;;;7.00;2.10;;;14.90;99.30;;;;;;5034673;28;20400;-87
2022/04/11 11:34:14;;;;;;;7.13;2.20;;;14.80;98.10;;;;;;5018115;28;20042;-88
2022/04/11 11:36:40;;;;;;;4.90;2.03;;;14.40;98.00;;;;;;5032778;28;20116;-87
2022/04/11 11:39:17;;;;;;;6.18;1.80;;;14.50;98.80;;;;;;5036601;28;20051;-89
2022/04/11 11:41:44;;;;;;;9.10;2.35;;;14.60;98.60;;;;;;5037352;28;20140;-89
2022/04/11 11:44:10;;;;;;;5.95;2.30;;;15.00;99.10;;;;;;5036965;28;20053;-86
2022/04/11 11:46:56;;;;;;;7.78;2.25;;;15.20;97.80;;;;;;5039247;28;20087;-87
2022/04/11 11:49:27;;;;;;;5.30;2.30;;;15.00;99.20;;;;;;5039059;28;20050;-88
2022/04/11 11:51:53;;;;;;;4.65;2.00;;;15.10;99.20;;;;;;5037348;28;20087;-90
2022/04/11 11:54:31;;;;;;;5.88;2.60;;;15.20;98.50;;;;;;5037028;28;20053;-91
2022/04/11 11:56:57;;;;;;;7.93;3.20;;;15.20;98.40;;;;;;5036775;28;20049;-77
2022/04/11 11:59:23;;;;;;;6.28;2.53;;;15.40;98.60;;;;;;5040683;28;20049;-96
2022/04/11 12:04:18;;;;;;;9.73;2.60;;;15.00;97.40;;;;;;5019397;28;20042;-86
2022/04/11 12:04:39;;;;;;;9.25;2.42;;;15.00;98.50;;;;;;5034925;28;20065;-87
2022/04/11 12:07:05;;;;;;;6.53;2.40;;;15.20;97.80;;;;;;5019824;28;20052;-85
2022/04/11 12:09:38;;;;;;;6.00;2.53;;;15.50;98.40;;;;;;5035878;28;20045;-87
2022/04/11 12:12:05;;;;;;;4.10;2.17;;;15.80;97.70;;;;;;5035604;28;20389;-86
2022/04/11 12:15:11;;;;;;;10.48;2.03;;;16.00;98.20;;;;;;5018834;28;20100;-84
2022/04/11 12:17:43;;;;;;;4.68;2.47;;;15.70;97.40;;;;;;5018452;28;20057;-87
2022/04/11 12:20:19;;;;;;;7.47;2.60;;;15.80;97.80;;;;;;5035113;28;20045;-86
2022/04/11 12:23:10;;;;;;;6.25;2.47;;;16.00;97.60;;;;;;5019398;28;20045;-90
2022/04/11 12:25:37;;;;;;;5.60;2.40;;;16.20;97.70;;;;;;5036040;28;20480;-89
2022/04/11 12:28:13;;;;;;;7.13;2.45;;;16.30;97.20;;;;;;5035843;28;20045;-82
2022/04/11 12:30:44;;;;;;;6.00;2.53;;;16.80;97.40;;;;;;5035567;28;20049;-82
2022/04/11 12:33:29;;;;;;;5.25;2.20;;;16.50;97.30;;;;;;5034858;28;20411;-94
2022/04/11 12:36:07;;;;;;;4.43;2.38;;;16.30;96.70;;;;;;5036121;28;20053;-83
2022/04/11 12:38:51;;;;;;;4.75;2.05;;;15.90;96.70;;;;;;5035554;28;20041;-93
2022/04/11 12:41:23;;;;;;;4.97;2.20;;;15.80;96.30;;;;;;5037322;28;20060;-95
2022/04/11 12:44:02;;;;;;;6.03;2.28;;;15.70;97.60;;;;;;5036522;28;20038;-91
2022/04/11 12:46:28;;;;;;;6.72;2.65;;;16.50;97.90;;;;;;5035919;28;20042;-96
2022/04/11 12:48:58;;;;;;;6.55;2.40;;;16.40;96.30;;;;;;5019169;28;20111;-94
2022/04/11 12:51:31;;;;;;;15.07;2.80;;;16.70;97.70;;;;;;5036146;28;20052;-92
2022/04/11 12:54:16;;;;;;;17.88;3.08;;;17.10;97.90;;;;;;5019416;28;20041;-92
2022/04/11 12:56:49;;;;;;;4.47;2.65;;;17.20;97.80;;;;;;5035196;28;20465;-89
2022/04/11 12:59:35;;;;;;;13.43;2.72;;;16.80;97.00;;;;;;5035016;28;20049;-86
2022/04/11 13:02:11;;;;;;;6.05;2.30;;;17.00;97.00;;;;;;5018713;28;20052;-87